sensor_id;sensor_type;location;lat;lon;timestamp;temperature;humidity
2751;DHT22;1383;48.362;10.908;2023-02-28T00:01:22;-0.60;42.40
2751;DHT22;1383;48.362;10.908;2023-02-28T00:03:49;-0.60;42.60
2751;DHT22;1383;48.362;10.908;2023-02-28T00:06:16;-0.60;42.50
2751;DHT22;1383;48.362;10.908;2023-02-28T00:08:43;-0.60;42.30
2751;DHT22;1383;48.362;10.908;2023-02-28T00:11:12;-0.60;42.40
2751;DHT22;1383;48.362;10.908;2023-02-28T00:13:41;-0.60;42.60
2751;DHT22;1383;48.362;10.908;2023-02-28T00:16:11;-0.60;42.60
2751;DHT22;1383;48.362;10.908;2023-02-28T00:18:40;-0.50;42.70
2751;DHT22;1383;48.362;10.908;2023-02-28T00:21:07;-0.50;42.20
2751;DHT22;1383;48.362;10.908;2023-02-28T00:23:34;-0.50;41.90
2751;DHT22;1383;48.362;10.908;2023-02-28T00:26:01;-0.60;42.00
2751;DHT22;1383;48.362;10.908;2023-02-28T00:28:29;-0.60;42.40
2751;DHT22;1383;48.362;10.908;2023-02-28T00:30:56;-0.60;42.40
2751;DHT22;1383;48.362;10.908;2023-02-28T00:33:24;-0.60;42.50
2751;DHT22;1383;48.362;10.908;2023-02-28T00:35:50;-0.60;42.30
2751;DHT22;1383;48.362;10.908;2023-02-28T00:38:17;-0.60;42.50
2751;DHT22;1383;48.362;10.908;2023-02-28T00:40:44;-0.60;42.50
2751;DHT22;1383;48.362;10.908;2023-02-28T00:43:11;-0.70;42.70
2751;DHT22;1383;48.362;10.908;2023-02-28T00:45:38;-0.70;42.80
2751;DHT22;1383;48.362;10.908;2023-02-28T00:48:05;-0.70;42.70
2751;DHT22;1383;48.362;10.908;2023-02-28T00:50:32;-0.90;42.90
2751;DHT22;1383;48.362;10.908;2023-02-28T00:52:59;-0.90;43.20
2751;DHT22;1383;48.362;10.908;2023-02-28T00:55:26;-1.00;43.40
2751;DHT22;1383;48.362;10.908;2023-02-28T00:57:52;-0.90;43.90
2751;DHT22;1383;48.362;10.908;2023-02-28T01:00:19;-0.90;43.90
2751;DHT22;1383;48.362;10.908;2023-02-28T01:02:46;-1.00;43.70
2751;DHT22;1383;48.362;10.908;2023-02-28T01:05:13;-1.00;43.80
2751;DHT22;1383;48.362;10.908;2023-02-28T01:07:40;-1.00;43.80
2751;DHT22;1383;48.362;10.908;2023-02-28T01:10:07;-1.00;43.90
2751;DHT22;1383;48.362;10.908;2023-02-28T01:12:34;-1.00;43.90
2751;DHT22;1383;48.362;10.908;2023-02-28T01:15:01;-1.00;43.90
2751;DHT22;1383;48.362;10.908;2023-02-28T01:17:28;-1.00;43.90
2751;DHT22;1383;48.362;10.908;2023-02-28T01:19:55;-1.10;43.90
2751;DHT22;1383;48.362;10.908;2023-02-28T01:22:22;-1.10;44.00
2751;DHT22;1383;48.362;10.908;2023-02-28T01:24:49;-1.10;44.20
2751;DHT22;1383;48.362;10.908;2023-02-28T01:27:16;-1.00;44.00
2751;DHT22;1383;48.362;10.908;2023-02-28T01:29:42;-1.10;44.00
2751;DHT22;1383;48.362;10.908;2023-02-28T01:32:09;-1.00;44.10
2751;DHT22;1383;48.362;10.908;2023-02-28T01:34:36;-1.00;43.80
2751;DHT22;1383;48.362;10.908;2023-02-28T01:37:03;-1.00;44.10
2751;DHT22;1383;48.362;10.908;2023-02-28T01:39:30;-1.00;44.20
2751;DHT22;1383;48.362;10.908;2023-02-28T01:41:57;-1.00;44.30
2751;DHT22;1383;48.362;10.908;2023-02-28T01:47:48;-1.00;44.60
2751;DHT22;1383;48.362;10.908;2023-02-28T01:50:23;-1.10;44.20
2751;DHT22;1383;48.362;10.908;2023-02-28T01:52:52;-1.10;44.40
2751;DHT22;1383;48.362;10.908;2023-02-28T01:55:21;-1.20;44.30
2751;DHT22;1383;48.362;10.908;2023-02-28T01:57:53;-1.20;44.70
2751;DHT22;1383;48.362;10.908;2023-02-28T02:00:24;-1.20;44.70
2751;DHT22;1383;48.362;10.908;2023-02-28T02:02:57;-1.20;44.70
2751;DHT22;1383;48.362;10.908;2023-02-28T02:05:28;-1.30;44.70
2751;DHT22;1383;48.362;10.908;2023-02-28T02:08:02;-1.20;45.00
2751;DHT22;1383;48.362;10.908;2023-02-28T02:10:33;-1.20;44.70
2751;DHT22;1383;48.362;10.908;2023-02-28T02:13:05;-1.20;44.80
2751;DHT22;1383;48.362;10.908;2023-02-28T02:18:26;-1.30;45.00
2751;DHT22;1383;48.362;10.908;2023-02-28T02:26:55;-1.30;45.80
2751;DHT22;1383;48.362;10.908;2023-02-28T02:29:47;-1.30;45.70
2751;DHT22;1383;48.362;10.908;2023-02-28T02:32:51;-1.40;45.70
2751;DHT22;1383;48.362;10.908;2023-02-28T02:35:38;-1.40;46.20
2751;DHT22;1383;48.362;10.908;2023-02-28T02:38:19;-1.40;46.30
2751;DHT22;1383;48.362;10.908;2023-02-28T02:43:44;-1.40;46.50
2751;DHT22;1383;48.362;10.908;2023-02-28T02:46:25;-1.30;46.50
2751;DHT22;1383;48.362;10.908;2023-02-28T02:48:55;-1.30;46.50
2751;DHT22;1383;48.362;10.908;2023-02-28T02:51:24;-1.30;46.70
2751;DHT22;1383;48.362;10.908;2023-02-28T02:53:55;-1.30;46.80
2751;DHT22;1383;48.362;10.908;2023-02-28T02:56:26;-1.30;47.00
2751;DHT22;1383;48.362;10.908;2023-02-28T02:58:57;-1.30;47.30
2751;DHT22;1383;48.362;10.908;2023-02-28T03:01:29;-1.30;47.50
2751;DHT22;1383;48.362;10.908;2023-02-28T03:03:59;-1.20;47.30
2751;DHT22;1383;48.362;10.908;2023-02-28T03:06:27;-1.20;47.30
2751;DHT22;1383;48.362;10.908;2023-02-28T03:08:54;-1.20;47.20
2751;DHT22;1383;48.362;10.908;2023-02-28T03:11:21;-1.20;47.40
2751;DHT22;1383;48.362;10.908;2023-02-28T03:13:58;-1.20;47.50
2751;DHT22;1383;48.362;10.908;2023-02-28T03:19:50;-1.20;47.40
2751;DHT22;1383;48.362;10.908;2023-02-28T03:22:51;-1.20;47.60
2751;DHT22;1383;48.362;10.908;2023-02-28T03:28:45;-1.10;47.70
2751;DHT22;1383;48.362;10.908;2023-02-28T03:31:20;-1.10;47.70
2751;DHT22;1383;48.362;10.908;2023-02-28T03:33:54;-1.10;47.90
2751;DHT22;1383;48.362;10.908;2023-02-28T03:36:25;-1.00;47.60
2751;DHT22;1383;48.362;10.908;2023-02-28T03:39:01;-1.10;47.70
2751;DHT22;1383;48.362;10.908;2023-02-28T03:41:48;-1.10;48.10
2751;DHT22;1383;48.362;10.908;2023-02-28T03:47:00;-1.10;48.20
2751;DHT22;1383;48.362;10.908;2023-02-28T03:49:37;-1.10;48.40
2751;DHT22;1383;48.362;10.908;2023-02-28T03:52:06;-1.20;48.90
2751;DHT22;1383;48.362;10.908;2023-02-28T03:54:41;-1.10;48.90
2751;DHT22;1383;48.362;10.908;2023-02-28T03:57:25;-1.10;48.70
2751;DHT22;1383;48.362;10.908;2023-02-28T03:59:59;-1.10;48.80
2751;DHT22;1383;48.362;10.908;2023-02-28T04:02:31;-1.00;48.70
2751;DHT22;1383;48.362;10.908;2023-02-28T04:04:59;-1.10;48.50
2751;DHT22;1383;48.362;10.908;2023-02-28T04:07:29;-1.10;48.70
2751;DHT22;1383;48.362;10.908;2023-02-28T04:10:04;-1.10;48.70
2751;DHT22;1383;48.362;10.908;2023-02-28T04:12:31;-1.00;49.00
2751;DHT22;1383;48.362;10.908;2023-02-28T04:14:58;-1.00;48.90
2751;DHT22;1383;48.362;10.908;2023-02-28T04:17:24;-1.00;48.90
2751;DHT22;1383;48.362;10.908;2023-02-28T04:19:51;-1.00;48.60
2751;DHT22;1383;48.362;10.908;2023-02-28T04:22:18;-1.10;49.00
2751;DHT22;1383;48.362;10.908;2023-02-28T04:24:45;-1.10;48.80
2751;DHT22;1383;48.362;10.908;2023-02-28T04:27:11;-1.10;48.80
2751;DHT22;1383;48.362;10.908;2023-02-28T04:29:38;-1.10;49.00
2751;DHT22;1383;48.362;10.908;2023-02-28T04:32:05;-1.10;49.10
2751;DHT22;1383;48.362;10.908;2023-02-28T04:34:32;-1.10;49.10
2751;DHT22;1383;48.362;10.908;2023-02-28T04:36:59;-1.10;49.10
2751;DHT22;1383;48.362;10.908;2023-02-28T04:39:42;-1.10;49.30
2751;DHT22;1383;48.362;10.908;2023-02-28T04:42:10;-1.00;49.10
2751;DHT22;1383;48.362;10.908;2023-02-28T04:44:37;-1.00;49.30
2751;DHT22;1383;48.362;10.908;2023-02-28T04:47:04;-1.00;49.00
2751;DHT22;1383;48.362;10.908;2023-02-28T04:49:31;-1.00;49.10
2751;DHT22;1383;48.362;10.908;2023-02-28T04:51:58;-1.10;48.80
2751;DHT22;1383;48.362;10.908;2023-02-28T04:54:24;-1.10;49.10
2751;DHT22;1383;48.362;10.908;2023-02-28T04:56:51;-1.10;49.40
2751;DHT22;1383;48.362;10.908;2023-02-28T04:59:18;-1.10;49.60
2751;DHT22;1383;48.362;10.908;2023-02-28T05:01:49;-1.10;49.90
2751;DHT22;1383;48.362;10.908;2023-02-28T05:04:16;-1.00;49.60
2751;DHT22;1383;48.362;10.908;2023-02-28T05:06:43;-1.00;49.10
2751;DHT22;1383;48.362;10.908;2023-02-28T05:09:09;-1.10;49.50
2751;DHT22;1383;48.362;10.908;2023-02-28T05:11:39;-1.00;49.80
2751;DHT22;1383;48.362;10.908;2023-02-28T05:14:13;-1.00;49.40
2751;DHT22;1383;48.362;10.908;2023-02-28T05:16:40;-1.10;49.20
2751;DHT22;1383;48.362;10.908;2023-02-28T05:19:07;-1.00;49.20
2751;DHT22;1383;48.362;10.908;2023-02-28T05:21:40;-1.00;49.20
2751;DHT22;1383;48.362;10.908;2023-02-28T05:24:10;-0.90;49.40
2751;DHT22;1383;48.362;10.908;2023-02-28T05:26:41;-1.00;49.10
2751;DHT22;1383;48.362;10.908;2023-02-28T05:29:09;-0.90;49.30
2751;DHT22;1383;48.362;10.908;2023-02-28T05:31:37;-0.90;48.50
2751;DHT22;1383;48.362;10.908;2023-02-28T05:34:04;-0.80;48.60
2751;DHT22;1383;48.362;10.908;2023-02-28T05:36:31;-0.90;48.40
2751;DHT22;1383;48.362;10.908;2023-02-28T05:38:58;-0.90;48.50
2751;DHT22;1383;48.362;10.908;2023-02-28T05:41:25;-0.90;48.30
2751;DHT22;1383;48.362;10.908;2023-02-28T05:43:53;-0.90;48.20
2751;DHT22;1383;48.362;10.908;2023-02-28T05:46:19;-0.90;48.80
2751;DHT22;1383;48.362;10.908;2023-02-28T05:48:47;-0.90;48.40
2751;DHT22;1383;48.362;10.908;2023-02-28T05:51:14;-1.00;48.40
2751;DHT22;1383;48.362;10.908;2023-02-28T05:53:41;-1.10;48.50
2751;DHT22;1383;48.362;10.908;2023-02-28T05:56:08;-1.10;49.10
2751;DHT22;1383;48.362;10.908;2023-02-28T05:58:34;-1.10;49.40
2751;DHT22;1383;48.362;10.908;2023-02-28T06:01:23;-1.00;49.60
2751;DHT22;1383;48.362;10.908;2023-02-28T06:03:50;-1.00;49.60
2751;DHT22;1383;48.362;10.908;2023-02-28T06:06:17;-1.00;49.10
2751;DHT22;1383;48.362;10.908;2023-02-28T06:08:43;-0.90;49.70
2751;DHT22;1383;48.362;10.908;2023-02-28T06:11:11;-1.00;49.30
2751;DHT22;1383;48.362;10.908;2023-02-28T06:13:38;-1.00;49.40
2751;DHT22;1383;48.362;10.908;2023-02-28T06:16:05;-0.90;49.30
2751;DHT22;1383;48.362;10.908;2023-02-28T06:18:32;-1.00;48.90
2751;DHT22;1383;48.362;10.908;2023-02-28T06:20:59;-1.00;49.10
2751;DHT22;1383;48.362;10.908;2023-02-28T06:23:26;-1.00;49.30
2751;DHT22;1383;48.362;10.908;2023-02-28T06:25:52;-1.00;49.00
2751;DHT22;1383;48.362;10.908;2023-02-28T06:28:19;-1.00;49.20
2751;DHT22;1383;48.362;10.908;2023-02-28T06:30:46;-1.00;49.10
2751;DHT22;1383;48.362;10.908;2023-02-28T06:33:13;-1.00;48.70
2751;DHT22;1383;48.362;10.908;2023-02-28T06:35:43;-1.00;48.60
2751;DHT22;1383;48.362;10.908;2023-02-28T06:38:10;-1.10;48.60
2751;DHT22;1383;48.362;10.908;2023-02-28T06:40:37;-1.10;48.70
2751;DHT22;1383;48.362;10.908;2023-02-28T06:43:04;-0.90;48.80
2751;DHT22;1383;48.362;10.908;2023-02-28T06:45:31;-1.00;48.30
2751;DHT22;1383;48.362;10.908;2023-02-28T06:47:57;-1.00;48.30
2751;DHT22;1383;48.362;10.908;2023-02-28T06:50:25;-1.10;48.70
2751;DHT22;1383;48.362;10.908;2023-02-28T06:52:51;-1.10;48.70
2751;DHT22;1383;48.362;10.908;2023-02-28T06:55:20;-1.00;48.90
2751;DHT22;1383;48.362;10.908;2023-02-28T06:57:47;-0.90;48.80
2751;DHT22;1383;48.362;10.908;2023-02-28T07:00:14;-0.90;48.80
2751;DHT22;1383;48.362;10.908;2023-02-28T07:02:41;-0.90;48.80
2751;DHT22;1383;48.362;10.908;2023-02-28T07:05:08;-1.00;49.00
2751;DHT22;1383;48.362;10.908;2023-02-28T07:07:35;-1.10;48.20
2751;DHT22;1383;48.362;10.908;2023-02-28T07:10:04;-1.20;48.90
2751;DHT22;1383;48.362;10.908;2023-02-28T07:12:32;-1.10;49.10
2751;DHT22;1383;48.362;10.908;2023-02-28T07:14:59;-1.10;48.80
2751;DHT22;1383;48.362;10.908;2023-02-28T07:17:25;-1.10;48.80
2751;DHT22;1383;48.362;10.908;2023-02-28T07:19:52;-1.00;48.80
2751;DHT22;1383;48.362;10.908;2023-02-28T07:22:19;-1.00;48.90
2751;DHT22;1383;48.362;10.908;2023-02-28T07:24:46;-0.90;48.40
2751;DHT22;1383;48.362;10.908;2023-02-28T07:27:12;-0.80;48.30
2751;DHT22;1383;48.362;10.908;2023-02-28T07:29:52;-0.80;47.80
2751;DHT22;1383;48.362;10.908;2023-02-28T07:32:19;-0.80;47.80
2751;DHT22;1383;48.362;10.908;2023-02-28T07:34:46;-0.80;47.40
2751;DHT22;1383;48.362;10.908;2023-02-28T07:37:13;-0.80;47.40
2751;DHT22;1383;48.362;10.908;2023-02-28T07:39:40;-0.70;46.90
2751;DHT22;1383;48.362;10.908;2023-02-28T07:42:10;-0.80;47.40
2751;DHT22;1383;48.362;10.908;2023-02-28T07:44:39;-0.70;46.60
2751;DHT22;1383;48.362;10.908;2023-02-28T07:47:08;-0.90;47.10
2751;DHT22;1383;48.362;10.908;2023-02-28T07:49:36;-1.00;47.50
2751;DHT22;1383;48.362;10.908;2023-02-28T07:52:06;-0.90;47.60
2751;DHT22;1383;48.362;10.908;2023-02-28T07:54:34;-0.80;47.50
2751;DHT22;1383;48.362;10.908;2023-02-28T07:57:00;-0.80;46.90
2751;DHT22;1383;48.362;10.908;2023-02-28T07:59:27;-0.80;47.30
2751;DHT22;1383;48.362;10.908;2023-02-28T08:01:58;-0.70;47.20
2751;DHT22;1383;48.362;10.908;2023-02-28T08:04:25;-0.70;47.00
2751;DHT22;1383;48.362;10.908;2023-02-28T08:06:52;-0.70;47.10
2751;DHT22;1383;48.362;10.908;2023-02-28T08:09:19;-0.60;46.40
2751;DHT22;1383;48.362;10.908;2023-02-28T08:11:46;-0.70;46.20
2751;DHT22;1383;48.362;10.908;2023-02-28T08:14:13;-0.80;46.30
2751;DHT22;1383;48.362;10.908;2023-02-28T08:16:40;-0.70;47.50
2751;DHT22;1383;48.362;10.908;2023-02-28T08:19:07;-0.60;46.50
2751;DHT22;1383;48.362;10.908;2023-02-28T08:21:33;-0.40;45.80
2751;DHT22;1383;48.362;10.908;2023-02-28T08:24:00;-0.40;45.20
2751;DHT22;1383;48.362;10.908;2023-02-28T08:26:27;-0.30;45.20
2751;DHT22;1383;48.362;10.908;2023-02-28T08:28:54;-0.30;44.40
2751;DHT22;1383;48.362;10.908;2023-02-28T08:31:23;-0.20;44.80
2751;DHT22;1383;48.362;10.908;2023-02-28T08:33:49;-0.20;44.90
2751;DHT22;1383;48.362;10.908;2023-02-28T08:36:19;-0.40;44.80
2751;DHT22;1383;48.362;10.908;2023-02-28T08:38:45;-0.30;45.60
2751;DHT22;1383;48.362;10.908;2023-02-28T08:41:13;-0.20;44.80
2751;DHT22;1383;48.362;10.908;2023-02-28T08:43:41;0.00;44.70
2751;DHT22;1383;48.362;10.908;2023-02-28T08:46:12;-0.10;43.20
2751;DHT22;1383;48.362;10.908;2023-02-28T08:48:40;-0.10;44.20
2751;DHT22;1383;48.362;10.908;2023-02-28T08:51:11;-0.10;44.00
2751;DHT22;1383;48.362;10.908;2023-02-28T08:53:39;0.00;43.60
2751;DHT22;1383;48.362;10.908;2023-02-28T08:56:13;-0.30;43.80
2751;DHT22;1383;48.362;10.908;2023-02-28T08:58:40;-0.40;44.30
2751;DHT22;1383;48.362;10.908;2023-02-28T09:01:10;-0.40;44.60
2751;DHT22;1383;48.362;10.908;2023-02-28T09:03:38;-0.40;44.30
2751;DHT22;1383;48.362;10.908;2023-02-28T09:06:05;-0.40;44.60
2751;DHT22;1383;48.362;10.908;2023-02-28T09:08:31;-0.30;44.70
2751;DHT22;1383;48.362;10.908;2023-02-28T09:10:58;-0.10;43.90
2751;DHT22;1383;48.362;10.908;2023-02-28T09:13:28;0.00;43.40
2751;DHT22;1383;48.362;10.908;2023-02-28T09:16:01;0.20;43.40
2751;DHT22;1383;48.362;10.908;2023-02-28T09:18:28;0.20;43.30
2751;DHT22;1383;48.362;10.908;2023-02-28T09:20:55;0.20;42.70
2751;DHT22;1383;48.362;10.908;2023-02-28T09:23:22;0.30;42.80
2751;DHT22;1383;48.362;10.908;2023-02-28T09:25:54;0.60;43.00
2751;DHT22;1383;48.362;10.908;2023-02-28T09:28:22;0.60;41.70
2751;DHT22;1383;48.362;10.908;2023-02-28T09:30:51;0.80;42.80
2751;DHT22;1383;48.362;10.908;2023-02-28T09:33:21;1.10;41.20
2751;DHT22;1383;48.362;10.908;2023-02-28T09:35:49;1.10;40.00
2751;DHT22;1383;48.362;10.908;2023-02-28T09:38:17;1.10;40.10
2751;DHT22;1383;48.362;10.908;2023-02-28T09:40:53;1.40;40.50
2751;DHT22;1383;48.362;10.908;2023-02-28T09:43:23;1.20;39.50
2751;DHT22;1383;48.362;10.908;2023-02-28T09:46:37;1.10;39.50
2751;DHT22;1383;48.362;10.908;2023-02-28T09:48:47;1.00;39.90
2751;DHT22;1383;48.362;10.908;2023-02-28T09:51:36;1.00;40.10
2751;DHT22;1383;48.362;10.908;2023-02-28T09:54:05;0.90;40.30
2751;DHT22;1383;48.362;10.908;2023-02-28T09:56:36;1.10;40.00
2751;DHT22;1383;48.362;10.908;2023-02-28T10:04:36;1.40;38.20
2751;DHT22;1383;48.362;10.908;2023-02-28T10:09:55;1.70;38.30
2751;DHT22;1383;48.362;10.908;2023-02-28T10:12:24;1.40;38.10
2751;DHT22;1383;48.362;10.908;2023-02-28T10:14:54;1.40;38.80
2751;DHT22;1383;48.362;10.908;2023-02-28T10:17:24;1.40;38.10
2751;DHT22;1383;48.362;10.908;2023-02-28T10:20:05;1.40;38.60
2751;DHT22;1383;48.362;10.908;2023-02-28T10:25:29;1.20;39.00
2751;DHT22;1383;48.362;10.908;2023-02-28T10:28:12;1.40;39.30
2751;DHT22;1383;48.362;10.908;2023-02-28T10:30:43;1.70;38.40
2751;DHT22;1383;48.362;10.908;2023-02-28T10:33:23;1.20;37.90
2751;DHT22;1383;48.362;10.908;2023-02-28T10:35:50;1.40;39.10
2751;DHT22;1383;48.362;10.908;2023-02-28T10:38:25;1.70;37.80
2751;DHT22;1383;48.362;10.908;2023-02-28T10:41:10;1.80;39.00
2751;DHT22;1383;48.362;10.908;2023-02-28T10:43:39;2.30;37.60
2751;DHT22;1383;48.362;10.908;2023-02-28T10:48:50;2.90;34.90
2751;DHT22;1383;48.362;10.908;2023-02-28T10:51:23;2.60;35.20
2751;DHT22;1383;48.362;10.908;2023-02-28T10:53:54;2.50;35.60
2751;DHT22;1383;48.362;10.908;2023-02-28T10:56:29;2.60;35.40
2751;DHT22;1383;48.362;10.908;2023-02-28T10:59:31;2.30;35.40
2751;DHT22;1383;48.362;10.908;2023-02-28T11:01:50;2.00;35.80
2751;DHT22;1383;48.362;10.908;2023-02-28T11:07:23;1.70;37.20
2751;DHT22;1383;48.362;10.908;2023-02-28T11:09:57;1.60;37.50
2751;DHT22;1383;48.362;10.908;2023-02-28T11:14:58;1.80;37.50
2751;DHT22;1383;48.362;10.908;2023-02-28T11:17:28;2.00;37.50
2751;DHT22;1383;48.362;10.908;2023-02-28T11:20:07;2.10;37.30
2751;DHT22;1383;48.362;10.908;2023-02-28T11:22:43;2.00;37.40
2751;DHT22;1383;48.362;10.908;2023-02-28T11:27:55;2.50;36.80
2751;DHT22;1383;48.362;10.908;2023-02-28T11:30:32;2.40;36.60
2751;DHT22;1383;48.362;10.908;2023-02-28T11:33:01;2.20;36.30
2751;DHT22;1383;48.362;10.908;2023-02-28T11:35:38;2.30;37.00
2751;DHT22;1383;48.362;10.908;2023-02-28T11:38:11;2.50;36.80
2751;DHT22;1383;48.362;10.908;2023-02-28T11:40:46;2.40;36.10
2751;DHT22;1383;48.362;10.908;2023-02-28T11:51:54;2.70;35.70
2751;DHT22;1383;48.362;10.908;2023-02-28T11:54:54;2.70;36.20
2751;DHT22;1383;48.362;10.908;2023-02-28T12:06:13;2.60;37.10
2751;DHT22;1383;48.362;10.908;2023-02-28T12:09:10;2.60;36.30
2751;DHT22;1383;48.362;10.908;2023-02-28T12:15:13;2.70;36.40
2751;DHT22;1383;48.362;10.908;2023-02-28T12:29:02;3.10;36.30
2751;DHT22;1383;48.362;10.908;2023-02-28T12:31:38;3.10;36.50
2751;DHT22;1383;48.362;10.908;2023-02-28T12:34:11;3.10;36.00
2751;DHT22;1383;48.362;10.908;2023-02-28T12:36:41;3.00;35.70
2751;DHT22;1383;48.362;10.908;2023-02-28T12:42:05;3.20;36.50
2751;DHT22;1383;48.362;10.908;2023-02-28T12:44:44;3.20;35.40
2751;DHT22;1383;48.362;10.908;2023-02-28T12:47:16;3.40;36.30
2751;DHT22;1383;48.362;10.908;2023-02-28T12:49:48;3.40;34.40
2751;DHT22;1383;48.362;10.908;2023-02-28T12:52:23;3.40;34.40
2751;DHT22;1383;48.362;10.908;2023-02-28T12:54:55;3.30;35.70
2751;DHT22;1383;48.362;10.908;2023-02-28T12:57:34;3.30;35.20
2751;DHT22;1383;48.362;10.908;2023-02-28T13:10:46;3.60;35.30
2751;DHT22;1383;48.362;10.908;2023-02-28T13:13:16;3.70;35.40
2751;DHT22;1383;48.362;10.908;2023-02-28T13:16:06;3.60;34.60
2751;DHT22;1383;48.362;10.908;2023-02-28T13:18:38;3.60;34.20
2751;DHT22;1383;48.362;10.908;2023-02-28T13:21:23;3.60;34.40
2751;DHT22;1383;48.362;10.908;2023-02-28T13:29:41;3.90;33.80
2751;DHT22;1383;48.362;10.908;2023-02-28T13:34:38;3.90;33.60
2751;DHT22;1383;48.362;10.908;2023-02-28T13:47:33;4.20;33.40
2751;DHT22;1383;48.362;10.908;2023-02-28T13:50:22;4.20;33.30
2751;DHT22;1383;48.362;10.908;2023-02-28T13:56:03;4.00;34.50
2751;DHT22;1383;48.362;10.908;2023-02-28T14:01:16;4.10;34.00
2751;DHT22;1383;48.362;10.908;2023-02-28T14:06:53;4.00;33.70
2751;DHT22;1383;48.362;10.908;2023-02-28T14:09:27;3.90;33.70
2751;DHT22;1383;48.362;10.908;2023-02-28T14:11:55;4.00;33.90
2751;DHT22;1383;48.362;10.908;2023-02-28T14:17:12;3.80;34.30
2751;DHT22;1383;48.362;10.908;2023-02-28T14:19:44;3.70;34.10
2751;DHT22;1383;48.362;10.908;2023-02-28T14:31:09;3.80;33.90
2751;DHT22;1383;48.362;10.908;2023-02-28T14:36:38;3.80;33.50
2751;DHT22;1383;48.362;10.908;2023-02-28T14:39:10;3.80;33.50
2751;DHT22;1383;48.362;10.908;2023-02-28T14:41:40;3.90;33.30
2751;DHT22;1383;48.362;10.908;2023-02-28T14:44:19;3.90;33.40
2751;DHT22;1383;48.362;10.908;2023-02-28T14:46:50;3.90;33.80
2751;DHT22;1383;48.362;10.908;2023-02-28T14:52:25;3.80;33.40
2751;DHT22;1383;48.362;10.908;2023-02-28T14:54:57;3.80;33.20
2751;DHT22;1383;48.362;10.908;2023-02-28T15:00:00;3.80;33.30
2751;DHT22;1383;48.362;10.908;2023-02-28T15:02:31;3.90;33.10
2751;DHT22;1383;48.362;10.908;2023-02-28T15:05:00;3.90;33.30
2751;DHT22;1383;48.362;10.908;2023-02-28T15:07:27;3.80;33.20
2751;DHT22;1383;48.362;10.908;2023-02-28T15:15:20;3.80;33.90
2751;DHT22;1383;48.362;10.908;2023-02-28T15:18:03;3.80;34.10
2751;DHT22;1383;48.362;10.908;2023-02-28T15:20:32;3.90;34.10
2751;DHT22;1383;48.362;10.908;2023-02-28T15:23:00;3.80;34.10
2751;DHT22;1383;48.362;10.908;2023-02-28T15:25:27;3.90;34.20
2751;DHT22;1383;48.362;10.908;2023-02-28T15:27:55;3.90;34.20
2751;DHT22;1383;48.362;10.908;2023-02-28T15:30:28;3.80;34.30
2751;DHT22;1383;48.362;10.908;2023-02-28T15:33:20;3.80;34.30
2751;DHT22;1383;48.362;10.908;2023-02-28T15:35:47;3.80;34.30
2751;DHT22;1383;48.362;10.908;2023-02-28T15:38:18;3.90;34.40
2751;DHT22;1383;48.362;10.908;2023-02-28T15:40:56;3.90;34.70
2751;DHT22;1383;48.362;10.908;2023-02-28T15:43:27;3.90;34.40
2751;DHT22;1383;48.362;10.908;2023-02-28T15:46:09;3.80;34.30
2751;DHT22;1383;48.362;10.908;2023-02-28T15:48:57;3.80;34.30
2751;DHT22;1383;48.362;10.908;2023-02-28T15:51:36;3.70;34.30
2751;DHT22;1383;48.362;10.908;2023-02-28T15:54:08;3.70;34.40
2751;DHT22;1383;48.362;10.908;2023-02-28T15:56:43;3.70;34.60
2751;DHT22;1383;48.362;10.908;2023-02-28T16:04:37;3.80;34.60
2751;DHT22;1383;48.362;10.908;2023-02-28T16:07:05;3.80;34.50
2751;DHT22;1383;48.362;10.908;2023-02-28T16:09:32;3.80;34.30
2751;DHT22;1383;48.362;10.908;2023-02-28T16:12:02;3.70;34.30
2751;DHT22;1383;48.362;10.908;2023-02-28T16:14:30;3.70;34.70
2751;DHT22;1383;48.362;10.908;2023-02-28T16:17:05;3.70;34.70
2751;DHT22;1383;48.362;10.908;2023-02-28T16:19:32;3.70;34.80
2751;DHT22;1383;48.362;10.908;2023-02-28T16:22:00;3.60;35.10
2751;DHT22;1383;48.362;10.908;2023-02-28T16:24:27;3.50;35.10
2751;DHT22;1383;48.362;10.908;2023-02-28T16:26:55;3.50;35.30
2751;DHT22;1383;48.362;10.908;2023-02-28T16:29:29;3.50;35.40
2751;DHT22;1383;48.362;10.908;2023-02-28T16:31:58;3.60;35.60
2751;DHT22;1383;48.362;10.908;2023-02-28T16:34:25;3.50;35.60
2751;DHT22;1383;48.362;10.908;2023-02-28T16:36:52;3.50;35.70
2751;DHT22;1383;48.362;10.908;2023-02-28T16:39:19;3.50;35.70
2751;DHT22;1383;48.362;10.908;2023-02-28T16:41:50;3.50;35.80
2751;DHT22;1383;48.362;10.908;2023-02-28T16:44:29;3.50;35.80
2751;DHT22;1383;48.362;10.908;2023-02-28T16:46:57;3.40;36.00
2751;DHT22;1383;48.362;10.908;2023-02-28T16:49:25;3.30;36.30
2751;DHT22;1383;48.362;10.908;2023-02-28T16:51:53;3.30;36.70
2751;DHT22;1383;48.362;10.908;2023-02-28T16:54:20;3.30;36.80
2751;DHT22;1383;48.362;10.908;2023-02-28T16:56:48;3.20;36.90
2751;DHT22;1383;48.362;10.908;2023-02-28T16:59:19;3.20;36.90
2751;DHT22;1383;48.362;10.908;2023-02-28T17:01:47;3.10;37.00
2751;DHT22;1383;48.362;10.908;2023-02-28T17:04:16;3.10;36.90
2751;DHT22;1383;48.362;10.908;2023-02-28T17:06:43;3.10;37.20
2751;DHT22;1383;48.362;10.908;2023-02-28T17:09:16;3.10;37.30
2751;DHT22;1383;48.362;10.908;2023-02-28T17:11:44;3.00;37.50
2751;DHT22;1383;48.362;10.908;2023-02-28T17:14:11;3.00;37.50
2751;DHT22;1383;48.362;10.908;2023-02-28T17:16:38;3.10;37.50
2751;DHT22;1383;48.362;10.908;2023-02-28T17:19:13;3.00;37.30
2751;DHT22;1383;48.362;10.908;2023-02-28T17:21:42;3.00;37.50
2751;DHT22;1383;48.362;10.908;2023-02-28T17:24:09;3.00;37.70
2751;DHT22;1383;48.362;10.908;2023-02-28T17:26:44;2.90;37.70
2751;DHT22;1383;48.362;10.908;2023-02-28T17:29:16;2.90;37.90
2751;DHT22;1383;48.362;10.908;2023-02-28T17:31:43;2.80;38.00
2751;DHT22;1383;48.362;10.908;2023-02-28T17:34:10;2.80;38.10
2751;DHT22;1383;48.362;10.908;2023-02-28T17:36:37;2.80;38.10
2751;DHT22;1383;48.362;10.908;2023-02-28T17:39:09;2.70;38.50
2751;DHT22;1383;48.362;10.908;2023-02-28T17:41:36;2.70;38.40
2751;DHT22;1383;48.362;10.908;2023-02-28T17:44:03;2.70;38.70
2751;DHT22;1383;48.362;10.908;2023-02-28T17:46:30;2.70;38.80
2751;DHT22;1383;48.362;10.908;2023-02-28T17:48:57;2.60;38.90
2751;DHT22;1383;48.362;10.908;2023-02-28T17:51:24;2.60;39.30
2751;DHT22;1383;48.362;10.908;2023-02-28T17:53:51;2.60;39.40
2751;DHT22;1383;48.362;10.908;2023-02-28T17:56:25;2.50;39.40
2751;DHT22;1383;48.362;10.908;2023-02-28T17:58:54;2.50;39.70
2751;DHT22;1383;48.362;10.908;2023-02-28T18:01:22;2.40;39.80
2751;DHT22;1383;48.362;10.908;2023-02-28T18:03:50;2.40;40.10
2751;DHT22;1383;48.362;10.908;2023-02-28T18:06:24;2.50;41.50
2751;DHT22;1383;48.362;10.908;2023-02-28T18:08:51;2.40;41.10
2751;DHT22;1383;48.362;10.908;2023-02-28T18:11:20;2.40;40.90
2751;DHT22;1383;48.362;10.908;2023-02-28T18:13:49;2.40;41.20
2751;DHT22;1383;48.362;10.908;2023-02-28T18:16:17;2.40;40.60
2751;DHT22;1383;48.362;10.908;2023-02-28T18:18:45;2.30;40.60
2751;DHT22;1383;48.362;10.908;2023-02-28T18:21:13;2.20;41.20
2751;DHT22;1383;48.362;10.908;2023-02-28T18:23:41;2.10;41.30
2751;DHT22;1383;48.362;10.908;2023-02-28T18:26:18;2.10;41.40
2751;DHT22;1383;48.362;10.908;2023-02-28T18:28:46;2.10;41.50
2751;DHT22;1383;48.362;10.908;2023-02-28T18:31:16;2.00;41.60
2751;DHT22;1383;48.362;10.908;2023-02-28T18:33:46;2.00;41.70
2751;DHT22;1383;48.362;10.908;2023-02-28T18:36:13;1.90;41.80
2751;DHT22;1383;48.362;10.908;2023-02-28T18:38:40;1.80;42.00
2751;DHT22;1383;48.362;10.908;2023-02-28T18:41:07;1.80;42.30
2751;DHT22;1383;48.362;10.908;2023-02-28T18:43:36;1.80;42.50